Port Neches, Texas
Current Conditions -  °F | °C
As of 9:53 AM on Monday 24 Nov 2014 (Local Time) from KBPT Reporting Station
Clear Clear  
Wind Chill: 58°   Ceiling: Unl
Heat Index: 58°   Visibility: 10mi
Dew Point: 42°   Wind: 17mph
Humidity: 56%   Direction: 350°N
Pressure: 30"   Gusts: NA
Location:  29.99°N, 93.96°W
Report Text: KBPT 241553Z 35015KT 10SM CLR 14/06 A3000 RMK AO2 RAE30 SLP159 P0000 T01440056
Loading
Personal Weather Stations






























Interactive Weather Map New forecast layout! Learn more

10-Day Weather Forecast

Advertisements
Track Severe Weather on mobile